sensor_id;sensor_type;location;lat;lon;timestamp;temperature;humidity
16267;DHT22;8241;48.786;9.250;2022-07-23T00:01:23;26.30;99.90
16267;DHT22;8241;48.786;9.250;2022-07-23T00:03:50;26.20;99.90
16267;DHT22;8241;48.786;9.250;2022-07-23T00:06:17;26.10;99.90
16267;DHT22;8241;48.786;9.250;2022-07-23T00:08:44;26.00;99.90
16267;DHT22;8241;48.786;9.250;2022-07-23T00:11:11;26.00;99.90
16267;DHT22;8241;48.786;9.250;2022-07-23T00:13:38;25.90;99.90
16267;DHT22;8241;48.786;9.250;2022-07-23T00:16:05;25.90;99.90
16267;DHT22;8241;48.786;9.250;2022-07-23T00:18:34;25.90;99.90
16267;DHT22;8241;48.786;9.250;2022-07-23T00:21:01;25.90;99.90
16267;DHT22;8241;48.786;9.250;2022-07-23T00:23:27;25.90;99.90
16267;DHT22;8241;48.786;9.250;2022-07-23T00:25:56;25.90;99.90
16267;DHT22;8241;48.786;9.250;2022-07-23T00:28:23;25.90;99.90
16267;DHT22;8241;48.786;9.250;2022-07-23T00:30:50;25.80;99.90
16267;DHT22;8241;48.786;9.250;2022-07-23T00:33:18;25.80;99.90
16267;DHT22;8241;48.786;9.250;2022-07-23T00:35:46;25.60;99.90
16267;DHT22;8241;48.786;9.250;2022-07-23T00:38:13;25.80;99.90
16267;DHT22;8241;48.786;9.250;2022-07-23T00:40:40;25.70;99.90
16267;DHT22;8241;48.786;9.250;2022-07-23T00:43:07;25.80;99.90
16267;DHT22;8241;48.786;9.250;2022-07-23T00:45:34;25.70;99.90
16267;DHT22;8241;48.786;9.250;2022-07-23T00:48:01;25.60;99.90
16267;DHT22;8241;48.786;9.250;2022-07-23T00:50:29;25.40;99.90
16267;DHT22;8241;48.786;9.250;2022-07-23T00:53:07;25.20;99.90
16267;DHT22;8241;48.786;9.250;2022-07-23T00:55:35;25.00;99.90
16267;DHT22;8241;48.786;9.250;2022-07-23T00:58:02;24.80;99.90
16267;DHT22;8241;48.786;9.250;2022-07-23T01:00:29;24.70;99.90
16267;DHT22;8241;48.786;9.250;2022-07-23T01:02:56;24.60;99.90
16267;DHT22;8241;48.786;9.250;2022-07-23T01:05:26;24.80;99.90
16267;DHT22;8241;48.786;9.250;2022-07-23T01:08:23;24.50;99.90
16267;DHT22;8241;48.786;9.250;2022-07-23T01:10:52;24.60;99.90
16267;DHT22;8241;48.786;9.250;2022-07-23T01:13:19;24.70;99.90
16267;DHT22;8241;48.786;9.250;2022-07-23T01:15:46;24.60;99.90
16267;DHT22;8241;48.786;9.250;2022-07-23T01:18:15;24.70;99.90
16267;DHT22;8241;48.786;9.250;2022-07-23T01:20:53;24.80;99.90
16267;DHT22;8241;48.786;9.250;2022-07-23T01:23:21;24.80;99.90
16267;DHT22;8241;48.786;9.250;2022-07-23T01:26:10;24.80;99.90
16267;DHT22;8241;48.786;9.250;2022-07-23T01:28:39;24.70;99.90
16267;DHT22;8241;48.786;9.250;2022-07-23T01:31:06;24.70;99.90
16267;DHT22;8241;48.786;9.250;2022-07-23T01:33:35;24.60;99.90
16267;DHT22;8241;48.786;9.250;2022-07-23T01:36:01;24.80;99.90
16267;DHT22;8241;48.786;9.250;2022-07-23T01:38:30;24.80;99.90
16267;DHT22;8241;48.786;9.250;2022-07-23T01:40:57;24.80;99.90
16267;DHT22;8241;48.786;9.250;2022-07-23T01:43:30;24.90;99.90
16267;DHT22;8241;48.786;9.250;2022-07-23T01:45:57;24.80;99.90
16267;DHT22;8241;48.786;9.250;2022-07-23T01:48:28;24.80;99.90
16267;DHT22;8241;48.786;9.250;2022-07-23T01:51:13;24.80;99.90
16267;DHT22;8241;48.786;9.250;2022-07-23T01:53:44;24.80;99.90
16267;DHT22;8241;48.786;9.250;2022-07-23T01:56:12;24.70;99.90
16267;DHT22;8241;48.786;9.250;2022-07-23T01:58:40;24.70;99.90
16267;DHT22;8241;48.786;9.250;2022-07-23T02:01:07;24.80;99.90
16267;DHT22;8241;48.786;9.250;2022-07-23T02:03:36;24.90;99.90
16267;DHT22;8241;48.786;9.250;2022-07-23T02:06:03;24.70;99.90
16267;DHT22;8241;48.786;9.250;2022-07-23T02:08:32;24.60;99.90
16267;DHT22;8241;48.786;9.250;2022-07-23T02:11:02;24.50;99.90
16267;DHT22;8241;48.786;9.250;2022-07-23T02:13:29;24.50;99.90
16267;DHT22;8241;48.786;9.250;2022-07-23T02:16:30;24.40;99.90
16267;DHT22;8241;48.786;9.250;2022-07-23T02:19:01;24.30;99.90
16267;DHT22;8241;48.786;9.250;2022-07-23T02:21:28;24.40;99.90
16267;DHT22;8241;48.786;9.250;2022-07-23T02:24:03;24.50;99.90
16267;DHT22;8241;48.786;9.250;2022-07-23T02:26:32;24.50;99.90
16267;DHT22;8241;48.786;9.250;2022-07-23T02:29:02;24.40;99.90
16267;DHT22;8241;48.786;9.250;2022-07-23T02:31:29;24.40;99.90
16267;DHT22;8241;48.786;9.250;2022-07-23T02:33:56;24.30;99.90
16267;DHT22;8241;48.786;9.250;2022-07-23T02:36:26;24.30;99.90
16267;DHT22;8241;48.786;9.250;2022-07-23T02:38:53;24.30;99.90
16267;DHT22;8241;48.786;9.250;2022-07-23T02:41:20;24.40;99.90
16267;DHT22;8241;48.786;9.250;2022-07-23T02:43:48;24.50;99.90
16267;DHT22;8241;48.786;9.250;2022-07-23T02:46:18;24.60;99.90
16267;DHT22;8241;48.786;9.250;2022-07-23T02:48:45;24.50;99.90
16267;DHT22;8241;48.786;9.250;2022-07-23T02:51:13;24.40;99.90
16267;DHT22;8241;48.786;9.250;2022-07-23T02:53:43;24.40;99.90
16267;DHT22;8241;48.786;9.250;2022-07-23T02:56:28;24.10;99.90
16267;DHT22;8241;48.786;9.250;2022-07-23T02:58:57;24.10;99.90
16267;DHT22;8241;48.786;9.250;2022-07-23T03:01:24;24.00;99.90
16267;DHT22;8241;48.786;9.250;2022-07-23T03:03:53;23.90;99.90
16267;DHT22;8241;48.786;9.250;2022-07-23T03:06:21;23.80;99.90
16267;DHT22;8241;48.786;9.250;2022-07-23T03:08:49;23.90;99.90
16267;DHT22;8241;48.786;9.250;2022-07-23T03:11:16;23.90;99.90
16267;DHT22;8241;48.786;9.250;2022-07-23T03:13:43;23.90;99.90
16267;DHT22;8241;48.786;9.250;2022-07-23T03:16:12;24.00;99.90
16267;DHT22;8241;48.786;9.250;2022-07-23T03:18:39;24.00;99.90
16267;DHT22;8241;48.786;9.250;2022-07-23T03:21:06;24.00;99.90
16267;DHT22;8241;48.786;9.250;2022-07-23T03:23:34;23.90;99.90
16267;DHT22;8241;48.786;9.250;2022-07-23T03:26:00;23.90;99.90
16267;DHT22;8241;48.786;9.250;2022-07-23T03:28:27;23.90;99.90
16267;DHT22;8241;48.786;9.250;2022-07-23T03:30:54;23.90;99.90
16267;DHT22;8241;48.786;9.250;2022-07-23T03:33:23;24.00;99.90
16267;DHT22;8241;48.786;9.250;2022-07-23T03:35:50;24.00;99.90
16267;DHT22;8241;48.786;9.250;2022-07-23T03:38:30;24.00;99.90
16267;DHT22;8241;48.786;9.250;2022-07-23T03:40:57;23.90;99.90
16267;DHT22;8241;48.786;9.250;2022-07-23T03:43:23;23.80;99.90
16267;DHT22;8241;48.786;9.250;2022-07-23T03:45:51;23.80;99.90
16267;DHT22;8241;48.786;9.250;2022-07-23T03:48:18;23.80;99.90
16267;DHT22;8241;48.786;9.250;2022-07-23T03:50:51;23.90;99.90
16267;DHT22;8241;48.786;9.250;2022-07-23T03:53:22;23.90;99.90
16267;DHT22;8241;48.786;9.250;2022-07-23T03:55:52;23.80;99.90
16267;DHT22;8241;48.786;9.250;2022-07-23T03:58:26;23.80;99.90
16267;DHT22;8241;48.786;9.250;2022-07-23T04:01:12;23.80;99.90
16267;DHT22;8241;48.786;9.250;2022-07-23T04:03:39;23.90;99.90
16267;DHT22;8241;48.786;9.250;2022-07-23T04:06:07;23.90;99.90
16267;DHT22;8241;48.786;9.250;2022-07-23T04:08:48;23.80;99.90
16267;DHT22;8241;48.786;9.250;2022-07-23T04:11:22;23.70;99.90
16267;DHT22;8241;48.786;9.250;2022-07-23T04:14:02;23.70;99.90
16267;DHT22;8241;48.786;9.250;2022-07-23T04:16:36;23.60;99.90
16267;DHT22;8241;48.786;9.250;2022-07-23T04:19:05;23.60;99.90
16267;DHT22;8241;48.786;9.250;2022-07-23T04:21:45;23.70;99.90
16267;DHT22;8241;48.786;9.250;2022-07-23T04:24:18;23.80;99.90
16267;DHT22;8241;48.786;9.250;2022-07-23T04:26:53;23.90;99.90
16267;DHT22;8241;48.786;9.250;2022-07-23T04:29:32;23.80;99.90
16267;DHT22;8241;48.786;9.250;2022-07-23T04:32:01;23.80;99.90
16267;DHT22;8241;48.786;9.250;2022-07-23T04:34:38;23.90;99.90
16267;DHT22;8241;48.786;9.250;2022-07-23T04:37:06;23.90;99.90
16267;DHT22;8241;48.786;9.250;2022-07-23T04:39:35;23.90;99.90
16267;DHT22;8241;48.786;9.250;2022-07-23T04:42:02;23.80;99.90
16267;DHT22;8241;48.786;9.250;2022-07-23T04:44:30;23.80;99.90
16267;DHT22;8241;48.786;9.250;2022-07-23T04:46:57;23.80;99.90
16267;DHT22;8241;48.786;9.250;2022-07-23T04:49:24;23.90;99.90
16267;DHT22;8241;48.786;9.250;2022-07-23T04:51:51;23.90;99.90
16267;DHT22;8241;48.786;9.250;2022-07-23T04:54:19;23.90;99.90
16267;DHT22;8241;48.786;9.250;2022-07-23T04:56:46;23.90;99.90
16267;DHT22;8241;48.786;9.250;2022-07-23T04:59:13;23.90;99.90
16267;DHT22;8241;48.786;9.250;2022-07-23T05:01:42;23.90;99.90
16267;DHT22;8241;48.786;9.250;2022-07-23T05:04:13;24.00;99.90
16267;DHT22;8241;48.786;9.250;2022-07-23T05:06:41;24.00;99.90
16267;DHT22;8241;48.786;9.250;2022-07-23T05:09:08;23.90;99.90
16267;DHT22;8241;48.786;9.250;2022-07-23T05:11:36;23.90;99.90
16267;DHT22;8241;48.786;9.250;2022-07-23T05:14:06;23.90;99.90
16267;DHT22;8241;48.786;9.250;2022-07-23T05:16:33;24.00;99.90
16267;DHT22;8241;48.786;9.250;2022-07-23T05:19:07;24.10;99.90
16267;DHT22;8241;48.786;9.250;2022-07-23T05:21:35;23.90;99.90
16267;DHT22;8241;48.786;9.250;2022-07-23T05:24:02;23.80;99.90
16267;DHT22;8241;48.786;9.250;2022-07-23T05:26:32;23.80;99.90
16267;DHT22;8241;48.786;9.250;2022-07-23T05:29:01;23.90;99.90
16267;DHT22;8241;48.786;9.250;2022-07-23T05:31:28;24.00;99.90
16267;DHT22;8241;48.786;9.250;2022-07-23T05:33:57;24.10;99.90
16267;DHT22;8241;48.786;9.250;2022-07-23T05:36:25;24.00;99.90
16267;DHT22;8241;48.786;9.250;2022-07-23T05:38:54;24.10;99.90
16267;DHT22;8241;48.786;9.250;2022-07-23T05:41:22;24.30;99.90
16267;DHT22;8241;48.786;9.250;2022-07-23T05:43:49;24.40;99.90
16267;DHT22;8241;48.786;9.250;2022-07-23T05:46:17;24.40;99.90
16267;DHT22;8241;48.786;9.250;2022-07-23T05:48:50;24.40;99.90
16267;DHT22;8241;48.786;9.250;2022-07-23T05:51:43;24.40;99.90
16267;DHT22;8241;48.786;9.250;2022-07-23T05:54:11;24.40;99.90
16267;DHT22;8241;48.786;9.250;2022-07-23T05:56:38;24.50;99.90
16267;DHT22;8241;48.786;9.250;2022-07-23T05:59:05;24.50;99.90
16267;DHT22;8241;48.786;9.250;2022-07-23T06:01:35;24.40;99.90
16267;DHT22;8241;48.786;9.250;2022-07-23T06:04:08;24.50;99.90
16267;DHT22;8241;48.786;9.250;2022-07-23T06:06:38;24.60;99.90
16267;DHT22;8241;48.786;9.250;2022-07-23T06:09:07;24.70;99.90
16267;DHT22;8241;48.786;9.250;2022-07-23T06:11:35;24.70;99.90
16267;DHT22;8241;48.786;9.250;2022-07-23T06:14:02;24.80;99.90
16267;DHT22;8241;48.786;9.250;2022-07-23T06:16:44;24.90;99.90
16267;DHT22;8241;48.786;9.250;2022-07-23T06:19:11;24.80;99.90
16267;DHT22;8241;48.786;9.250;2022-07-23T06:21:38;24.80;99.90
16267;DHT22;8241;48.786;9.250;2022-07-23T06:24:06;24.90;99.90
16267;DHT22;8241;48.786;9.250;2022-07-23T06:26:33;24.90;99.90
16267;DHT22;8241;48.786;9.250;2022-07-23T06:29:00;25.10;99.90
16267;DHT22;8241;48.786;9.250;2022-07-23T06:31:27;25.20;99.90
16267;DHT22;8241;48.786;9.250;2022-07-23T06:33:56;25.10;99.90
16267;DHT22;8241;48.786;9.250;2022-07-23T06:36:23;24.70;99.90
16267;DHT22;8241;48.786;9.250;2022-07-23T06:38:49;24.70;99.90
16267;DHT22;8241;48.786;9.250;2022-07-23T06:41:16;24.80;99.90
16267;DHT22;8241;48.786;9.250;2022-07-23T06:43:44;24.60;99.90
16267;DHT22;8241;48.786;9.250;2022-07-23T06:46:13;24.80;99.90
16267;DHT22;8241;48.786;9.250;2022-07-23T06:48:40;24.80;99.90
16267;DHT22;8241;48.786;9.250;2022-07-23T06:51:09;25.00;99.90
16267;DHT22;8241;48.786;9.250;2022-07-23T06:53:38;25.30;99.90
16267;DHT22;8241;48.786;9.250;2022-07-23T06:56:08;25.20;99.90
16267;DHT22;8241;48.786;9.250;2022-07-23T06:58:35;24.70;99.90
16267;DHT22;8241;48.786;9.250;2022-07-23T07:01:02;24.80;99.90
16267;DHT22;8241;48.786;9.250;2022-07-23T07:03:29;24.50;99.90
16267;DHT22;8241;48.786;9.250;2022-07-23T07:05:56;24.60;99.90
16267;DHT22;8241;48.786;9.250;2022-07-23T07:08:25;24.60;99.90
16267;DHT22;8241;48.786;9.250;2022-07-23T07:10:52;24.30;99.90
16267;DHT22;8241;48.786;9.250;2022-07-23T07:13:19;24.10;99.90
16267;DHT22;8241;48.786;9.250;2022-07-23T07:15:46;24.10;99.90
16267;DHT22;8241;48.786;9.250;2022-07-23T07:18:13;24.10;99.90
16267;DHT22;8241;48.786;9.250;2022-07-23T07:20:40;24.30;99.90
16267;DHT22;8241;48.786;9.250;2022-07-23T07:23:06;24.20;99.90
16267;DHT22;8241;48.786;9.250;2022-07-23T07:25:35;24.40;99.90
16267;DHT22;8241;48.786;9.250;2022-07-23T07:28:02;24.60;99.90
16267;DHT22;8241;48.786;9.250;2022-07-23T07:30:29;24.60;99.90
16267;DHT22;8241;48.786;9.250;2022-07-23T07:32:56;24.50;99.90
16267;DHT22;8241;48.786;9.250;2022-07-23T07:35:23;24.40;99.90
16267;DHT22;8241;48.786;9.250;2022-07-23T07:37:50;24.40;99.90
16267;DHT22;8241;48.786;9.250;2022-07-23T07:40:18;24.30;99.90
16267;DHT22;8241;48.786;9.250;2022-07-23T07:42:47;24.00;99.90
16267;DHT22;8241;48.786;9.250;2022-07-23T07:45:14;24.10;99.90
16267;DHT22;8241;48.786;9.250;2022-07-23T07:47:41;24.20;99.90
16267;DHT22;8241;48.786;9.250;2022-07-23T07:50:09;24.40;99.90
16267;DHT22;8241;48.786;9.250;2022-07-23T07:52:36;24.30;99.90
16267;DHT22;8241;48.786;9.250;2022-07-23T07:55:03;23.90;99.90
16267;DHT22;8241;48.786;9.250;2022-07-23T07:57:30;23.60;99.90
16267;DHT22;8241;48.786;9.250;2022-07-23T07:59:58;22.90;99.90
16267;DHT22;8241;48.786;9.250;2022-07-23T08:02:28;22.90;99.90
16267;DHT22;8241;48.786;9.250;2022-07-23T08:04:55;22.90;99.90
16267;DHT22;8241;48.786;9.250;2022-07-23T08:07:22;23.00;99.90
16267;DHT22;8241;48.786;9.250;2022-07-23T08:09:49;23.10;99.90
16267;DHT22;8241;48.786;9.250;2022-07-23T08:12:16;23.20;99.90
16267;DHT22;8241;48.786;9.250;2022-07-23T08:14:44;23.50;99.90
16267;DHT22;8241;48.786;9.250;2022-07-23T08:17:12;23.80;99.90
16267;DHT22;8241;48.786;9.250;2022-07-23T08:19:39;24.00;99.90
16267;DHT22;8241;48.786;9.250;2022-07-23T08:22:06;23.70;99.90
16267;DHT22;8241;48.786;9.250;2022-07-23T08:24:33;23.80;99.90
16267;DHT22;8241;48.786;9.250;2022-07-23T08:27:00;23.80;99.90
16267;DHT22;8241;48.786;9.250;2022-07-23T08:29:27;23.80;99.90
16267;DHT22;8241;48.786;9.250;2022-07-23T08:31:56;24.00;99.90
16267;DHT22;8241;48.786;9.250;2022-07-23T08:34:25;24.40;99.90
16267;DHT22;8241;48.786;9.250;2022-07-23T08:36:52;24.50;99.90
16267;DHT22;8241;48.786;9.250;2022-07-23T08:39:19;24.50;99.90
16267;DHT22;8241;48.786;9.250;2022-07-23T08:41:46;24.50;99.90
16267;DHT22;8241;48.786;9.250;2022-07-23T08:44:16;24.20;99.90
16267;DHT22;8241;48.786;9.250;2022-07-23T08:46:44;24.30;99.90
16267;DHT22;8241;48.786;9.250;2022-07-23T08:49:11;24.40;99.90
16267;DHT22;8241;48.786;9.250;2022-07-23T08:51:41;24.40;99.90
16267;DHT22;8241;48.786;9.250;2022-07-23T08:54:08;24.60;99.90
16267;DHT22;8241;48.786;9.250;2022-07-23T08:56:35;24.70;99.90
16267;DHT22;8241;48.786;9.250;2022-07-23T08:59:03;25.00;99.90
16267;DHT22;8241;48.786;9.250;2022-07-23T09:01:30;25.20;99.90
16267;DHT22;8241;48.786;9.250;2022-07-23T09:03:57;25.60;99.90
16267;DHT22;8241;48.786;9.250;2022-07-23T09:06:24;26.00;99.90
16267;DHT22;8241;48.786;9.250;2022-07-23T09:08:52;26.00;99.90
16267;DHT22;8241;48.786;9.250;2022-07-23T09:11:19;26.80;99.90
16267;DHT22;8241;48.786;9.250;2022-07-23T09:13:47;27.80;99.90
16267;DHT22;8241;48.786;9.250;2022-07-23T09:16:16;27.50;99.90
16267;DHT22;8241;48.786;9.250;2022-07-23T09:18:46;26.80;99.90
16267;DHT22;8241;48.786;9.250;2022-07-23T09:21:15;27.20;99.90
16267;DHT22;8241;48.786;9.250;2022-07-23T09:23:44;28.10;99.90
16267;DHT22;8241;48.786;9.250;2022-07-23T09:26:27;28.80;99.90
16267;DHT22;8241;48.786;9.250;2022-07-23T09:28:59;28.60;99.90
16267;DHT22;8241;48.786;9.250;2022-07-23T09:31:32;28.60;99.90
16267;DHT22;8241;48.786;9.250;2022-07-23T09:34:21;29.10;99.90
16267;DHT22;8241;48.786;9.250;2022-07-23T09:36:50;29.10;99.90
16267;DHT22;8241;48.786;9.250;2022-07-23T09:39:25;29.20;99.90
16267;DHT22;8241;48.786;9.250;2022-07-23T09:41:54;29.20;99.90
16267;DHT22;8241;48.786;9.250;2022-07-23T09:44:21;28.30;99.90
16267;DHT22;8241;48.786;9.250;2022-07-23T09:46:49;28.60;99.90
16267;DHT22;8241;48.786;9.250;2022-07-23T09:49:18;28.40;99.90
16267;DHT22;8241;48.786;9.250;2022-07-23T09:51:48;28.20;99.90
16267;DHT22;8241;48.786;9.250;2022-07-23T09:54:24;27.50;99.90
16267;DHT22;8241;48.786;9.250;2022-07-23T09:56:53;27.60;99.90
16267;DHT22;8241;48.786;9.250;2022-07-23T09:59:22;28.10;99.90
16267;DHT22;8241;48.786;9.250;2022-07-23T10:01:50;28.20;99.90
16267;DHT22;8241;48.786;9.250;2022-07-23T10:04:18;28.10;99.90
16267;DHT22;8241;48.786;9.250;2022-07-23T10:07:08;28.00;99.90
16267;DHT22;8241;48.786;9.250;2022-07-23T10:09:54;28.50;99.90
16267;DHT22;8241;48.786;9.250;2022-07-23T10:12:29;28.80;99.90
16267;DHT22;8241;48.786;9.250;2022-07-23T10:15:14;28.60;99.90
16267;DHT22;8241;48.786;9.250;2022-07-23T10:17:42;28.90;99.90
16267;DHT22;8241;48.786;9.250;2022-07-23T10:20:09;29.20;99.90
16267;DHT22;8241;48.786;9.250;2022-07-23T10:22:40;29.30;99.90
16267;DHT22;8241;48.786;9.250;2022-07-23T10:25:12;29.10;99.90
16267;DHT22;8241;48.786;9.250;2022-07-23T10:30:43;29.20;99.90
16267;DHT22;8241;48.786;9.250;2022-07-23T10:33:30;29.20;99.90
16267;DHT22;8241;48.786;9.250;2022-07-23T10:36:03;28.30;99.90
16267;DHT22;8241;48.786;9.250;2022-07-23T10:38:39;27.70;99.90
16267;DHT22;8241;48.786;9.250;2022-07-23T10:41:09;27.70;99.90
16267;DHT22;8241;48.786;9.250;2022-07-23T10:43:37;28.30;99.90
16267;DHT22;8241;48.786;9.250;2022-07-23T10:46:24;28.50;99.90
16267;DHT22;8241;48.786;9.250;2022-07-23T10:49:30;28.20;99.90
16267;DHT22;8241;48.786;9.250;2022-07-23T10:52:17;28.30;99.90
16267;DHT22;8241;48.786;9.250;2022-07-23T10:54:46;28.60;99.90
16267;DHT22;8241;48.786;9.250;2022-07-23T10:57:15;28.30;99.90
16267;DHT22;8241;48.786;9.250;2022-07-23T11:00:21;28.60;99.90
16267;DHT22;8241;48.786;9.250;2022-07-23T11:02:50;28.70;99.90
16267;DHT22;8241;48.786;9.250;2022-07-23T11:05:19;28.60;99.90
16267;DHT22;8241;48.786;9.250;2022-07-23T11:08:18;28.90;99.90
16267;DHT22;8241;48.786;9.250;2022-07-23T11:10:55;28.60;99.90
16267;DHT22;8241;48.786;9.250;2022-07-23T11:13:42;28.90;99.90
16267;DHT22;8241;48.786;9.250;2022-07-23T11:16:41;29.40;99.90
16267;DHT22;8241;48.786;9.250;2022-07-23T11:19:12;29.60;99.90
16267;DHT22;8241;48.786;9.250;2022-07-23T11:21:50;29.60;99.90
16267;DHT22;8241;48.786;9.250;2022-07-23T11:24:19;29.70;99.90
16267;DHT22;8241;48.786;9.250;2022-07-23T11:26:55;29.90;99.90
16267;DHT22;8241;48.786;9.250;2022-07-23T11:29:45;30.30;99.90
16267;DHT22;8241;48.786;9.250;2022-07-23T11:32:40;29.90;99.90
16267;DHT22;8241;48.786;9.250;2022-07-23T11:35:25;29.90;99.90
16267;DHT22;8241;48.786;9.250;2022-07-23T11:37:54;30.00;99.90
16267;DHT22;8241;48.786;9.250;2022-07-23T11:40:29;30.30;99.90
16267;DHT22;8241;48.786;9.250;2022-07-23T11:42:58;30.10;99.90
16267;DHT22;8241;48.786;9.250;2022-07-23T11:45:29;30.80;99.90
16267;DHT22;8241;48.786;9.250;2022-07-23T11:47:58;31.10;99.90
16267;DHT22;8241;48.786;9.250;2022-07-23T11:50:25;30.10;99.90
16267;DHT22;8241;48.786;9.250;2022-07-23T11:52:52;30.10;99.90
16267;DHT22;8241;48.786;9.250;2022-07-23T11:55:19;29.60;99.90
16267;DHT22;8241;48.786;9.250;2022-07-23T11:57:47;30.10;99.90
16267;DHT22;8241;48.786;9.250;2022-07-23T12:00:16;30.00;99.30
16267;DHT22;8241;48.786;9.250;2022-07-23T12:02:45;30.20;99.80
16267;DHT22;8241;48.786;9.250;2022-07-23T12:05:16;30.60;99.10
16267;DHT22;8241;48.786;9.250;2022-07-23T12:07:44;30.70;98.60
16267;DHT22;8241;48.786;9.250;2022-07-23T12:10:18;30.50;99.00
16267;DHT22;8241;48.786;9.250;2022-07-23T12:12:47;29.70;99.90
16267;DHT22;8241;48.786;9.250;2022-07-23T12:15:16;29.90;99.80
16267;DHT22;8241;48.786;9.250;2022-07-23T12:17:46;30.50;99.70
16267;DHT22;8241;48.786;9.250;2022-07-23T12:20:16;31.00;99.70
16267;DHT22;8241;48.786;9.250;2022-07-23T12:22:45;31.50;99.20
16267;DHT22;8241;48.786;9.250;2022-07-23T12:25:14;31.40;99.00
16267;DHT22;8241;48.786;9.250;2022-07-23T12:27:42;32.10;98.30
16267;DHT22;8241;48.786;9.250;2022-07-23T12:30:21;32.60;97.80
16267;DHT22;8241;48.786;9.250;2022-07-23T12:32:51;32.60;98.30
16267;DHT22;8241;48.786;9.250;2022-07-23T12:35:21;32.70;97.70
16267;DHT22;8241;48.786;9.250;2022-07-23T12:37:49;32.70;97.90
16267;DHT22;8241;48.786;9.250;2022-07-23T12:40:26;32.70;97.80
16267;DHT22;8241;48.786;9.250;2022-07-23T12:42:57;33.10;97.50
16267;DHT22;8241;48.786;9.250;2022-07-23T12:45:26;32.50;97.40
16267;DHT22;8241;48.786;9.250;2022-07-23T12:47:59;31.40;97.90
16267;DHT22;8241;48.786;9.250;2022-07-23T12:50:39;32.20;97.70
16267;DHT22;8241;48.786;9.250;2022-07-23T12:53:10;32.70;96.40
16267;DHT22;8241;48.786;9.250;2022-07-23T12:55:38;34.20;96.30
16267;DHT22;8241;48.786;9.250;2022-07-23T12:58:08;36.20;93.80
16267;DHT22;8241;48.786;9.250;2022-07-23T13:00:59;36.40;92.90
16267;DHT22;8241;48.786;9.250;2022-07-23T13:03:29;34.30;94.80
16267;DHT22;8241;48.786;9.250;2022-07-23T13:05:59;33.50;95.90
16267;DHT22;8241;48.786;9.250;2022-07-23T13:08:27;33.40;96.10
16267;DHT22;8241;48.786;9.250;2022-07-23T13:10:55;33.90;95.30
16267;DHT22;8241;48.786;9.250;2022-07-23T13:13:24;34.30;95.10
16267;DHT22;8241;48.786;9.250;2022-07-23T13:15:51;33.20;95.70
16267;DHT22;8241;48.786;9.250;2022-07-23T13:18:19;31.70;96.80
16267;DHT22;8241;48.786;9.250;2022-07-23T13:20:47;32.00;97.20
16267;DHT22;8241;48.786;9.250;2022-07-23T13:23:16;32.70;96.30
16267;DHT22;8241;48.786;9.250;2022-07-23T13:25:44;33.30;96.50
16267;DHT22;8241;48.786;9.250;2022-07-23T13:28:11;32.70;96.60
16267;DHT22;8241;48.786;9.250;2022-07-23T13:30:39;34.20;96.20
16267;DHT22;8241;48.786;9.250;2022-07-23T13:33:05;34.00;95.80
16267;DHT22;8241;48.786;9.250;2022-07-23T13:35:34;34.30;94.50
16267;DHT22;8241;48.786;9.250;2022-07-23T13:38:01;34.40;95.00
16267;DHT22;8241;48.786;9.250;2022-07-23T13:40:29;33.70;95.10
16267;DHT22;8241;48.786;9.250;2022-07-23T13:42:56;34.90;94.50
16267;DHT22;8241;48.786;9.250;2022-07-23T13:45:23;37.00;92.50
16267;DHT22;8241;48.786;9.250;2022-07-23T13:47:50;34.90;93.90
16267;DHT22;8241;48.786;9.250;2022-07-23T13:50:17;34.80;93.20
16267;DHT22;8241;48.786;9.250;2022-07-23T13:52:44;35.70;93.60
16267;DHT22;8241;48.786;9.250;2022-07-23T13:55:11;35.10;94.10
16267;DHT22;8241;48.786;9.250;2022-07-23T13:57:39;35.70;93.30
16267;DHT22;8241;48.786;9.250;2022-07-23T14:00:08;37.30;92.20
16267;DHT22;8241;48.786;9.250;2022-07-23T14:02:37;38.40;91.60
16267;DHT22;8241;48.786;9.250;2022-07-23T14:05:05;38.40;91.30
16267;DHT22;8241;48.786;9.250;2022-07-23T14:07:33;39.20;90.50
16267;DHT22;8241;48.786;9.250;2022-07-23T14:10:00;39.30;90.80
16267;DHT22;8241;48.786;9.250;2022-07-23T14:12:27;40.30;89.70
16267;DHT22;8241;48.786;9.250;2022-07-23T14:14:55;39.40;90.20
16267;DHT22;8241;48.786;9.250;2022-07-23T14:17:23;38.00;90.70
16267;DHT22;8241;48.786;9.250;2022-07-23T14:19:50;35.80;92.70
16267;DHT22;8241;48.786;9.250;2022-07-23T14:22:17;34.90;92.90
16267;DHT22;8241;48.786;9.250;2022-07-23T14:24:44;34.10;94.30
16267;DHT22;8241;48.786;9.250;2022-07-23T14:27:11;34.20;94.60
16267;DHT22;8241;48.786;9.250;2022-07-23T14:29:38;34.50;94.20
16267;DHT22;8241;48.786;9.250;2022-07-23T14:32:07;35.10;93.70
16267;DHT22;8241;48.786;9.250;2022-07-23T14:34:34;35.30;92.70
16267;DHT22;8241;48.786;9.250;2022-07-23T14:37:01;35.30;92.90
16267;DHT22;8241;48.786;9.250;2022-07-23T14:39:28;33.40;93.50
16267;DHT22;8241;48.786;9.250;2022-07-23T14:41:55;32.50;94.50
16267;DHT22;8241;48.786;9.250;2022-07-23T14:44:22;33.20;94.90
16267;DHT22;8241;48.786;9.250;2022-07-23T14:46:49;34.90;93.50
16267;DHT22;8241;48.786;9.250;2022-07-23T14:49:17;36.20;91.50
16267;DHT22;8241;48.786;9.250;2022-07-23T14:51:45;35.90;91.60
16267;DHT22;8241;48.786;9.250;2022-07-23T14:54:11;35.70;92.20
16267;DHT22;8241;48.786;9.250;2022-07-23T14:56:39;35.60;91.50
16267;DHT22;8241;48.786;9.250;2022-07-23T14:59:07;36.10;91.70
16267;DHT22;8241;48.786;9.250;2022-07-23T15:01:34;36.20;92.00
16267;DHT22;8241;48.786;9.250;2022-07-23T15:04:02;36.20;91.10
16267;DHT22;8241;48.786;9.250;2022-07-23T15:06:35;35.80;91.70
16267;DHT22;8241;48.786;9.250;2022-07-23T15:09:02;33.50;94.00
16267;DHT22;8241;48.786;9.250;2022-07-23T15:11:29;33.40;93.40
16267;DHT22;8241;48.786;9.250;2022-07-23T15:13:59;32.90;93.90
16267;DHT22;8241;48.786;9.250;2022-07-23T15:16:26;32.40;95.30
16267;DHT22;8241;48.786;9.250;2022-07-23T15:18:53;33.60;94.10
16267;DHT22;8241;48.786;9.250;2022-07-23T15:21:21;34.90;93.00
16267;DHT22;8241;48.786;9.250;2022-07-23T15:23:49;34.20;93.00
16267;DHT22;8241;48.786;9.250;2022-07-23T15:26:18;34.40;92.80
16267;DHT22;8241;48.786;9.250;2022-07-23T15:28:45;36.10;92.10
16267;DHT22;8241;48.786;9.250;2022-07-23T15:31:12;37.70;90.00
16267;DHT22;8241;48.786;9.250;2022-07-23T15:33:39;35.90;90.50
16267;DHT22;8241;48.786;9.250;2022-07-23T15:36:06;35.20;91.70
16267;DHT22;8241;48.786;9.250;2022-07-23T15:38:34;36.20;91.00
16267;DHT22;8241;48.786;9.250;2022-07-23T15:41:03;38.10;89.10
16267;DHT22;8241;48.786;9.250;2022-07-23T15:43:30;38.70;87.30
16267;DHT22;8241;48.786;9.250;2022-07-23T15:45:57;38.70;86.10
16267;DHT22;8241;48.786;9.250;2022-07-23T15:48:24;34.30;90.90
16267;DHT22;8241;48.786;9.250;2022-07-23T15:50:51;32.60;93.20
16267;DHT22;8241;48.786;9.250;2022-07-23T15:53:18;32.50;93.70
16267;DHT22;8241;48.786;9.250;2022-07-23T15:55:46;33.30;93.10
16267;DHT22;8241;48.786;9.250;2022-07-23T15:58:14;34.10;92.10
16267;DHT22;8241;48.786;9.250;2022-07-23T16:00:41;33.50;92.90
16267;DHT22;8241;48.786;9.250;2022-07-23T16:03:08;32.50;93.60
16267;DHT22;8241;48.786;9.250;2022-07-23T16:05:36;32.50;93.70